Accueil
METAR-TAF:

METAR-TAF

Aéroports :

Aéroport international de Dallas-Fort Worth

Dallas / Fort Worth, Texas, États-Unis

latitude: 32-53-49N, longitude: 097-01-19W, altitude: 183 m

Observation

Le bulletin a été fait il y a 21 minutes, à 06:53 UTC
Vent 6 kt de sud
Température 26°C
Humidité 74%
Pression 1016 hPa
Visibilité: 16.1 km
Quelques nuages à une hauteur de 11000 ft
Quelques nuages à une hauteur de 25000 ft

METAR: KDFW 030653Z 17006KT 10SM FEW110 FEW250 26/21 A3000 RMK AO2 SLP150 T02560206

Heure: 02:14 (07:14 UTC)

Prévision

Le bulletin a été fait il y a 1 heure et 54 minutes, à 05:20 UTC
Prévision valable du 03 à 06 UTC au 04 à 12 UTC
Vent 5 kt de sud/sud-est
Visibilité: 10 km
Nuages épars à une hauteur de 25000 ft
A partir de 03 à 1700 UTC
Vent 9 kt de sud/sud-ouest
Visibilité: 10 km
Nuages épars à une hauteur de 6000 ft

TAF: KDFW 030520Z 0306/0412 15005KT P6SM SCT250 FM031700 20009KT P6SM SCT060

Observations et prévisions météorologiques de plus de 4000 aéroports (messages METAR et TAF).

Les stations disponibles sont représentées par des disques jaunes et rouges sur la carte.

Passer la souris dessus pour voir le nom de la station.

Cliquer dessus pour voir les observations et prévisions météorologiques.

Pour changer de carte: cliquez sur les boutons verts avec une croix noire pour zoomer, sur le bouton vert avec un tiret pour effectuer un zoom arrière, ou sur les flèches vertes pour les cartes adjacentes.


METAR-TAF: